Time;durP1;ratioP1;P1;durP2;ratioP2;P2;SDS_P1;SDS_P2;PMS_P1;PMS_P2;Temp;Humidity;BMP_temperature;BMP_pressure;BME280_temperature;BME280_humidity;BME280_pressure;Samples;Min_cycle;Max_cycle;Signal;HPM_P1;HPM_P2
2022/04/27 00:01:39;;;;;;;7.80;2.30;;;;;;;5.87;81.43;101432.08;104187;1287;76297;-79
2022/04/27 00:04:37;;;;;;;8.20;3.00;;;;;;;5.83;82.34;101435.02;104058;1287;70304;-78
2022/04/27 00:07:10;;;;;;;6.30;2.80;;;;;;;5.79;82.20;101431.67;103815;1287;74126;-78
2022/04/27 00:09:37;;;;;;;6.90;2.60;;;;;;;5.73;82.83;101430.38;104270;1287;62445;-77
2022/04/27 00:12:39;;;;;;;7.30;2.90;;;;;;;5.72;82.82;101431.90;104292;1287;61969;-80
2022/04/27 00:15:32;;;;;;;5.30;2.80;;;;;;;5.67;83.14;101426.14;104171;1287;76158;-78
2022/04/27 00:18:33;;;;;;;6.40;3.10;;;;;;;5.62;84.24;101427.75;104148;1287;72600;-77
2022/04/27 00:21:27;;;;;;;8.50;3.40;;;;;;;5.59;85.13;101430.67;104610;1286;74206;-78
2022/04/27 00:24:23;;;;;;;4.60;2.80;;;;;;;5.54;85.37;101436.16;104178;1287;63110;-78
2022/04/27 00:27:01;;;;;;;;;;;;;;;5.49;85.24;101437.20;104133;1287;61466;-79
2022/04/27 00:29:33;;;;;;;6.10;3.50;;;;;;;5.45;84.84;101439.50;104277;1286;77796;-79
2022/04/27 00:32:10;;;;;;;2.80;1.80;;;;;;;5.40;85.68;101435.20;104173;1287;72484;-78
2022/04/27 00:34:37;;;;;;;5.40;3.40;;;;;;;5.36;86.27;101433.05;104177;1287;73030;-78
2022/04/27 00:37:11;;;;;;;5.80;3.20;;;;;;;5.31;86.69;101430.96;104279;1285;61730;-76
2022/04/27 00:39:40;;;;;;;11.80;4.30;;;;;;;5.28;87.30;101430.46;104380;1287;61932;-77
2022/04/27 00:42:48;;;;;;;7.70;3.70;;;;;;;5.25;87.37;101430.77;104170;1286;76020;-76
2022/04/27 00:45:47;;;;;;;5.20;3.30;;;;;;;5.22;87.72;101431.84;104229;1287;72578;-77
2022/04/27 00:48:30;;;;;;;;;;;;;;;;;;;;;
2022/04/27 00:51:30;;;;;;;3.60;2.70;;;;;;;5.15;88.91;101442.60;103886;1288;61363;-77
2022/04/27 00:54:08;;;;;;;7.70;3.40;;;;;;;5.10;89.07;101439.61;104301;1287;61510;-77
2022/04/27 00:56:51;;;;;;;4.80;2.70;;;;;;;5.07;89.29;101437.61;104279;1286;74194;-77
2022/04/27 00:59:57;;;;;;;5.30;2.80;;;;;;;5.03;89.16;101437.05;104373;1287;72680;-79
2022/04/27 01:02:38;;;;;;;4.60;2.90;;;;;;;4.99;89.92;101437.20;104175;1287;74050;-78
2022/04/27 01:05:17;;;;;;;4.10;2.50;;;;;;;4.95;90.17;101440.64;104170;1287;61665;-77
2022/04/27 01:07:44;;;;;;;8.40;3.50;;;;;;;4.93;90.68;101443.11;104176;1287;61643;-78
2022/04/27 01:10:33;;;;;;;;;;;;;;;;;;;;;
2022/04/27 01:13:09;;;;;;;5.60;3.40;;;;;;;4.86;91.08;101452.90;104324;1287;71366;-77
2022/04/27 01:15:39;;;;;;;9.10;4.50;;;;;;;4.83;91.50;101456.11;104299;1287;74055;-78
2022/04/27 01:18:22;;;;;;;5.70;3.30;;;;;;;4.79;91.61;101457.11;104330;1287;61755;-78
2022/04/27 01:20:51;;;;;;;6.20;3.70;;;;;;;4.76;91.64;101451.09;104357;1287;61306;-78
2022/04/27 01:23:28;;;;;;;4.50;2.70;;;;;;;4.72;92.15;101450.98;104132;1287;76216;-79
2022/04/27 01:26:05;;;;;;;8.80;3.70;;;;;;;4.68;92.35;101454.09;104228;1287;72433;-79
2022/04/27 01:28:37;;;;;;;6.80;3.30;;;;;;;4.64;92.39;101454.95;104295;1287;72058;-80
2022/04/27 01:31:09;;;;;;;7.30;3.90;;;;;;;4.61;92.67;101456.45;103977;1288;61486;-79
2022/04/27 01:33:49;;;;;;;6.70;3.90;;;;;;;4.57;92.89;101461.30;105179;1287;61434;-78
2022/04/27 01:36:50;;;;;;;5.90;3.20;;;;;;;4.53;92.89;101465.42;104379;1287;76060;-76
2022/04/27 01:39:48;;;;;;;10.80;5.00;;;;;;;4.49;93.58;101461.33;104161;1287;73808;-78
2022/04/27 01:42:35;;;;;;;5.90;4.10;;;;;;;4.46;93.45;101464.52;104156;1287;74773;-77
2022/04/27 01:45:03;;;;;;;8.20;3.90;;;;;;;4.43;94.17;101473.52;104146;1288;62851;-78
2022/04/27 01:48:03;;;;;;;12.20;3.60;;;;;;;4.40;94.05;101480.22;104260;1287;61363;-79
2022/04/27 01:50:56;;;;;;;;;;;;;;;;;;;;;
2022/04/27 01:56:31;;;;;;;;;;;;;;;;;;;;;
2022/04/27 01:59:14;;;;;;;;;;;;;;;;;;;;;
2022/04/27 02:01:57;;;;;;;6.70;3.30;;;;;;;4.23;94.16;101488.33;104235;1287;62148;-76
2022/04/27 02:04:54;;;;;;;10.70;5.60;;;;;;;4.19;94.17;101486.86;104365;1287;75794;-80
2022/04/27 02:07:21;;;;;;;11.00;5.20;;;;;;;4.15;94.55;101498.21;104829;1286;71337;-79
2022/04/27 02:10:17;;;;;;;6.30;4.10;;;;;;;4.12;94.90;101500.73;104203;1287;72922;-79
2022/04/27 02:12:54;;;;;;;6.80;4.30;;;;;;;4.08;94.89;101503.63;104039;1288;62614;-80
2022/04/27 02:15:29;;;;;;;8.10;3.80;;;;;;;4.04;95.46;101502.30;104434;1287;61677;-78
2022/04/27 02:18:16;;;;;;;8.20;4.70;;;;;;;4.02;95.48;101504.05;104141;1288;76568;-77
2022/04/27 02:20:43;;;;;;;8.70;3.80;;;;;;;3.98;96.18;101508.36;104196;1287;72701;-77
2022/04/27 02:23:12;;;;;;;9.10;5.80;;;;;;;3.97;95.96;101511.98;104269;1287;74355;-77
2022/04/27 02:25:44;;;;;;;8.60;4.10;;;;;;;3.94;96.08;101512.67;104223;1287;61466;-76
2022/04/27 02:28:13;;;;;;;10.10;4.90;;;;;;;3.92;96.05;101510.80;104363;1287;61363;-79
2022/04/27 02:30:44;;;;;;;8.20;4.00;;;;;;;3.88;96.75;101507.49;104255;1287;75189;-77
2022/04/27 02:33:13;;;;;;;7.80;3.80;;;;;;;3.86;96.52;101508.58;105231;1287;71527;-77
2022/04/27 02:35:49;;;;;;;9.90;4.90;;;;;;;3.85;96.61;101513.02;104176;1287;74127;-78
2022/04/27 02:38:36;;;;;;;8.10;4.40;;;;;;;3.82;96.73;101514.23;104260;1287;61977;-78
2022/04/27 02:41:03;;;;;;;7.60;4.60;;;;;;;3.81;96.73;101513.25;104114;1288;61294;-78
2022/04/27 02:43:54;;;;;;;8.80;4.00;;;;;;;3.80;96.73;101514.95;104274;1287;75010;-79
2022/04/27 02:46:21;;;;;;;6.90;4.70;;;;;;;3.78;96.81;101518.93;104089;1287;70586;-79
2022/04/27 02:52:01;;;;;;;8.10;4.00;;;;;;;3.75;97.40;101526.17;104146;1287;62590;-77
2022/04/27 02:54:35;;;;;;;9.50;5.20;;;;;;;3.72;97.17;101530.73;104241;1287;61296;-78
2022/04/27 02:57:26;;;;;;;9.10;4.30;;;;;;;3.69;97.50;101531.64;104138;1287;75051;-78
2022/04/27 03:00:00;;;;;;;8.20;5.40;;;;;;;3.65;97.86;101532.09;104287;1287;72746;-78
2022/04/27 03:02:34;;;;;;;11.20;5.70;;;;;;;3.62;97.50;101534.02;104298;1287;74147;-78
2022/04/27 03:05:23;;;;;;;;;;;;;;;;;;;;;
2022/04/27 03:08:03;;;;;;;8.80;4.50;;;;;;;3.60;98.38;101533.48;104005;1288;61949;-79
2022/04/27 03:10:38;;;;;;;15.60;6.50;;;;;;;3.59;98.84;101531.12;106350;1286;74976;-77
2022/04/27 03:13:12;;;;;;;14.40;6.40;;;;;;;3.60;98.97;101532.11;104068;1288;72486;-78
2022/04/27 03:16:01;;;;;;;11.70;4.50;;;;;;;3.59;98.74;101535.81;104451;1287;73957;-78
2022/04/27 03:18:36;;;;;;;9.70;5.40;;;;;;;3.59;98.67;101538.64;104331;1288;61329;-77
2022/04/27 03:21:20;;;;;;;10.90;5.60;;;;;;;3.58;98.68;101539.98;104252;1287;61282;-77
2022/04/27 03:24:04;;;;;;;9.60;4.80;;;;;;;3.57;98.71;101541.09;103962;1287;76260;-79
2022/04/27 03:26:37;;;;;;;7.80;4.50;;;;;;;3.55;99.16;101543.62;103996;1287;72406;-78
2022/04/27 03:29:28;;;;;;;11.70;5.10;;;;;;;3.56;99.58;101546.04;104146;1287;74015;-79
2022/04/27 03:32:06;;;;;;;5.80;3.40;;;;;;;3.54;99.11;101549.46;104374;1287;62693;-77
2022/04/27 03:34:58;;;;;;;9.70;5.30;;;;;;;3.53;99.02;101546.25;104226;1287;61182;-77
2022/04/27 03:38:07;;;;;;;12.80;6.60;;;;;;;3.51;99.28;101555.98;104274;1287;76200;-77
2022/04/27 03:41:22;;;;;;;;;;;;;;;;;;;;;
2022/04/27 03:44:50;;;;;;;9.50;5.30;;;;;;;3.50;99.67;101565.19;103903;1287;73030;-78
2022/04/27 03:47:21;;;;;;;10.90;5.90;;;;;;;3.49;99.40;101574.68;104092;1287;61318;-79
2022/04/27 03:50:17;;;;;;;8.10;4.90;;;;;;;3.47;99.56;101577.96;104301;1287;61589;-79
2022/04/27 03:53:07;;;;;;;;;;;;;;;3.44;99.29;101581.65;104201;1287;76199;-81
2022/04/27 03:55:43;;;;;;;8.80;5.30;;;;;;;3.41;99.33;101581.89;104175;1287;72685;-80
2022/04/27 03:58:10;;;;;;;13.40;6.00;;;;;;;3.36;98.80;101582.55;104155;1287;73965;-79
2022/04/27 04:00:50;;;;;;;11.90;5.00;;;;;;;3.34;99.27;101586.27;104302;1287;61486;-79
2022/04/27 04:03:33;;;;;;;11.00;5.80;;;;;;;3.28;99.69;101582.09;105189;1287;61466;-80
2022/04/27 04:06:22;;;;;;;;;;;;;;;;;;;;;
2022/04/27 04:09:09;;;;;;;11.50;5.50;;;;;;;3.25;100.00;101595.89;104594;1287;72941;-80
2022/04/27 04:11:42;;;;;;;13.50;6.10;;;;;;;3.24;99.97;101598.20;104313;1287;72978;-79
2022/04/27 04:14:11;;;;;;;9.90;5.90;;;;;;;3.24;100.00;101598.42;104133;1287;62439;-69
2022/04/27 04:16:43;;;;;;;11.70;6.00;;;;;;;3.25;100.00;101600.63;104063;1287;61466;-67
2022/04/27 04:19:12;;;;;;;17.20;7.40;;;;;;;3.28;100.00;101601.86;104145;1287;75622;-68
2022/04/27 04:22:09;;;;;;;9.70;6.00;;;;;;;3.31;100.00;101604.97;103994;1288;72119;-70
2022/04/27 04:30:21;;;;;;;13.80;6.40;;;;;;;3.42;100.00;101613.64;104259;1287;61387;-71
2022/04/27 04:32:50;;;;;;;8.90;5.50;;;;;;;3.44;100.00;101616.46;104148;1287;76006;-70
2022/04/27 04:35:26;;;;;;;12.10;6.50;;;;;;;3.46;100.00;101620.70;104330;1287;72618;-71
2022/04/27 04:38:00;;;;;;;17.70;7.60;;;;;;;3.48;100.00;101626.67;104275;1287;74797;-71
2022/04/27 04:40:36;;;;;;;19.10;7.00;;;;;;;3.51;100.00;101626.34;104139;1287;63144;-70
2022/04/27 04:43:03;;;;;;;13.60;5.40;;;;;;;3.53;99.99;101626.32;104252;1287;61558;-70
2022/04/27 04:45:40;;;;;;;16.80;7.00;;;;;;;3.56;100.00;101627.17;104135;1287;75920;-70
2022/04/27 04:48:30;;;;;;;14.00;7.50;;;;;;;3.60;99.86;101632.33;104665;1287;72356;-70
2022/04/27 04:51:17;;;;;;;16.50;7.90;;;;;;;3.64;99.94;101635.38;103968;1287;74271;-71
2022/04/27 04:54:09;;;;;;;14.40;6.90;;;;;;;3.70;100.00;101638.45;104086;1288;61600;-71
2022/04/27 04:56:36;;;;;;;;;;;;;;;3.76;99.96;101644.02;104245;1287;61489;-70
2022/04/27 04:59:11;;;;;;;18.00;7.30;;;;;;;3.80;99.92;101645.77;104380;1287;76028;-70
2022/04/27 05:01:38;;;;;;;15.70;7.80;;;;;;;3.86;99.86;101648.16;104299;1287;72401;-70
2022/04/27 05:04:05;;;;;;;12.60;7.00;;;;;;;3.93;99.93;101650.86;104229;1288;72689;-71
2022/04/27 05:06:43;;;;;;;18.10;8.30;;;;;;;3.99;99.81;101653.36;104250;1287;61317;-71
2022/04/27 05:09:10;;;;;;;14.40;7.60;;;;;;;4.06;99.94;101658.33;104312;1287;61639;-70
2022/04/27 05:11:37;;;;;;;11.20;7.10;;;;;;;4.14;100.00;101664.98;104263;1287;76131;-69
2022/04/27 05:14:11;;;;;;;11.70;5.70;;;;;;;4.20;99.91;101664.32;104282;1287;72393;-71
2022/04/27 05:16:46;;;;;;;13.80;6.30;;;;;;;4.29;99.92;101670.38;104336;1287;73444;-70
2022/04/27 05:19:25;;;;;;;12.10;6.20;;;;;;;4.36;99.81;101669.86;104274;1287;62819;-70
2022/04/27 05:21:59;;;;;;;16.70;6.70;;;;;;;4.44;99.88;101668.92;104267;1287;61301;-71
2022/04/27 05:24:25;;;;;;;11.10;5.30;;;;;;;4.53;99.87;101675.30;104550;1287;76010;-70
2022/04/27 05:27:06;;;;;;;12.20;7.00;;;;;;;4.62;99.57;101675.29;104305;1287;72779;-69
2022/04/27 05:33:07;;;;;;;12.00;5.90;;;;;;;4.84;98.80;101683.15;104278;1287;61666;-70
2022/04/27 05:35:44;;;;;;;17.70;5.80;;;;;;;4.95;98.29;101684.33;104272;1287;61900;-70
2022/04/27 05:38:13;;;;;;;17.40;6.80;;;;;;;5.03;98.18;101690.17;104127;1287;76699;-71
2022/04/27 05:40:47;;;;;;;9.30;5.10;;;;;;;5.11;97.60;101689.39;104304;1287;70592;-69
2022/04/27 05:43:15;;;;;;;14.40;7.60;;;;;;;5.20;97.32;101690.31;104219;1287;72881;-68
2022/04/27 05:45:55;;;;;;;11.10;5.00;;;;;;;5.30;97.16;101693.41;104244;1287;62672;-74
2022/04/27 05:48:32;;;;;;;18.00;7.20;;;;;;;5.39;96.70;101694.70;104444;1287;61315;-71
2022/04/27 05:51:01;;;;;;;10.80;5.40;;;;;;;5.47;96.22;101697.18;104345;1287;75006;-72
2022/04/27 05:53:36;;;;;;;15.00;6.00;;;;;;;5.57;95.76;101701.19;104269;1287;72681;-71
2022/04/27 05:56:06;;;;;;;18.30;8.40;;;;;;;5.65;95.12;101704.99;103918;1288;74024;-70
2022/04/27 05:58:43;;;;;;;13.00;5.80;;;;;;;5.71;94.34;101705.52;104156;1287;63117;-72
2022/04/27 06:01:32;;;;;;;;;;;;;;;;;;;;;
2022/04/27 06:04:26;;;;;;;14.10;6.60;;;;;;;5.87;93.37;101712.95;105102;1287;72394;-73
2022/04/27 06:06:53;;;;;;;12.80;6.20;;;;;;;5.95;93.35;101714.05;104210;1287;72694;-70
2022/04/27 06:09:20;;;;;;;7.90;4.70;;;;;;;6.05;92.92;101715.59;104176;1288;74187;-71
2022/04/27 06:11:53;;;;;;;14.10;6.30;;;;;;;6.14;92.66;101716.63;104327;1286;62026;-70
2022/04/27 06:14:27;;;;;;;12.30;7.30;;;;;;;6.25;92.53;101721.92;106282;1286;61396;-69
2022/04/27 06:17:14;;;;;;;13.40;6.40;;;;;;;6.37;92.06;101722.77;104804;1287;75051;-71
2022/04/27 06:19:49;;;;;;;20.50;9.20;;;;;;;6.52;91.76;101726.46;104308;1287;72541;-71
2022/04/27 06:22:43;;;;;;;11.60;7.40;;;;;;;6.65;90.51;101731.59;104360;1287;72950;-75
2022/04/27 06:25:09;;;;;;;10.50;6.00;;;;;;;6.78;90.15;101721.89;104250;1287;64049;-75
2022/04/27 06:27:38;;;;;;;10.40;6.00;;;;;;;6.89;88.97;101727.64;104324;1287;61326;-75
2022/04/27 06:30:17;;;;;;;11.10;6.40;;;;;;;6.97;88.02;101729.48;104303;1287;75918;-75
2022/04/27 06:32:48;;;;;;;9.10;5.80;;;;;;;7.04;86.95;101730.88;106715;1287;71078;-77
2022/04/27 06:35:17;;;;;;;16.10;6.30;;;;;;;7.05;86.31;101733.41;104278;1287;73140;-74
2022/04/27 06:38:07;;;;;;;;;;;;;;;;;;;;;
2022/04/27 06:40:54;;;;;;;12.50;6.60;;;;;;;7.27;86.17;101735.34;104407;1287;61972;-75
2022/04/27 06:43:20;;;;;;;12.10;6.00;;;;;;;7.38;85.42;101736.48;104334;1287;76045;-73
2022/04/27 06:45:51;;;;;;;13.70;6.50;;;;;;;7.50;85.39;101737.41;104286;1287;72654;-74
2022/04/27 06:48:20;;;;;;;14.20;6.20;;;;;;;7.60;84.00;101738.36;104104;1288;73198;-72
2022/04/27 06:50:49;;;;;;;10.50;5.50;;;;;;;7.65;83.28;101736.11;104162;1287;62980;-72
2022/04/27 06:53:24;;;;;;;11.10;6.50;;;;;;;7.75;83.44;101742.37;104102;1287;61557;-73
2022/04/27 06:55:51;;;;;;;9.10;5.30;;;;;;;7.84;82.54;101743.50;104211;1287;75724;-71
2022/04/27 06:58:18;;;;;;;13.70;6.10;;;;;;;7.92;81.90;101744.60;104253;1287;72435;-71
2022/04/27 07:01:49;;;;;;;10.90;6.20;;;;;;;8.01;81.41;101747.88;104257;1287;72904;-71
2022/04/27 07:04:16;;;;;;;12.10;7.10;;;;;;;8.15;81.00;101749.30;104241;1287;63540;-70
2022/04/27 07:06:43;;;;;;;8.10;4.00;;;;;;;8.25;80.40;101754.25;104252;1287;61810;-73
2022/04/27 07:09:11;;;;;;;17.00;6.10;;;;;;;8.35;79.85;101753.56;104221;1287;76027;-71
2022/04/27 07:11:40;;;;;;;11.30;5.60;;;;;;;8.46;78.57;101756.39;104119;1287;70840;-74
2022/04/27 07:14:16;;;;;;;12.20;5.80;;;;;;;8.54;78.26;101757.58;104372;1287;72899;-72
2022/04/27 07:16:43;;;;;;;10.40;4.80;;;;;;;8.71;79.20;101764.05;104294;1287;62241;-71
2022/04/27 07:19:30;;;;;;;13.60;6.10;;;;;;;8.88;77.83;101768.89;104046;1287;61252;-71
2022/04/27 07:22:10;;;;;;;9.00;5.90;;;;;;;9.02;77.06;101768.62;104138;1287;75019;-72
2022/04/27 07:24:37;;;;;;;9.80;5.60;;;;;;;9.18;77.14;101771.25;103908;1289;72502;-70
2022/04/27 07:27:08;;;;;;;9.30;5.60;;;;;;;9.35;76.41;101772.86;104179;1287;73040;-70
2022/04/27 07:29:35;;;;;;;9.40;5.10;;;;;;;9.47;74.84;101770.59;106097;1288;62246;-71
2022/04/27 07:32:08;;;;;;;8.70;5.70;;;;;;;9.58;74.59;101769.23;104142;1288;61354;-70
2022/04/27 07:34:48;;;;;;;9.80;4.40;;;;;;;9.70;74.19;101765.27;104147;1287;76019;-70
2022/04/27 07:37:26;;;;;;;8.70;5.60;;;;;;;9.80;73.23;101768.55;104071;1288;72734;-69
2022/04/27 07:40:05;;;;;;;9.10;5.90;;;;;;;9.93;72.43;101772.85;104264;1287;74026;-71
2022/04/27 07:42:44;;;;;;;10.90;6.00;;;;;;;10.03;71.05;101775.66;104243;1287;63292;-69
2022/04/27 07:45:29;;;;;;;10.20;5.20;;;;;;;10.15;72.09;101774.46;104299;1287;61285;-71
2022/04/27 07:47:58;;;;;;;9.20;4.50;;;;;;;10.29;69.79;101778.45;104157;1287;76352;-71
2022/04/27 07:50:25;;;;;;;13.00;5.30;;;;;;;10.38;69.92;101779.04;104217;1287;71378;-70
2022/04/27 07:52:59;;;;;;;22.40;15.60;;;;;;;10.48;69.23;101779.35;104161;1287;74063;-75
2022/04/27 07:55:34;;;;;;;19.10;9.60;;;;;;;10.59;68.90;101782.33;104152;1287;63468;-75
2022/04/27 07:58:21;;;;;;;12.70;9.40;;;;;;;10.66;68.16;101784.86;104130;1287;62237;-75
2022/04/27 08:00:57;;;;;;;16.60;9.60;;;;;;;10.79;68.61;101786.10;104209;1287;76040;-74
2022/04/27 08:03:37;;;;;;;;;;;;;;;;;;;;;
2022/04/27 08:06:36;;;;;;;13.90;7.80;;;;;;;11.00;65.95;101794.11;104144;1287;73845;-70
2022/04/27 08:09:10;;;;;;;11.00;8.00;;;;;;;11.09;65.62;101797.63;104214;1287;61414;-72
2022/04/27 08:11:44;;;;;;;16.20;10.00;;;;;;;11.17;65.00;101802.52;104123;1287;61515;-72
2022/04/27 08:14:37;;;;;;;11.20;6.50;;;;;;;11.24;64.83;101799.52;104232;1287;76164;-71
2022/04/27 08:17:19;;;;;;;9.40;5.90;;;;;;;11.26;63.23;101801.64;104018;1287;71534;-72
2022/04/27 08:23:00;;;;;;;12.60;5.30;;;;;;;11.40;62.95;101796.15;104172;1287;61938;-72
2022/04/27 08:25:38;;;;;;;9.90;6.20;;;;;;;11.48;63.28;101802.16;104077;1288;61882;-71
2022/04/27 08:28:17;;;;;;;9.40;4.90;;;;;;;11.53;62.67;101800.96;104116;1287;75458;-71
2022/04/27 08:30:56;;;;;;;9.70;5.20;;;;;;;11.60;61.81;101806.43;104348;1287;72811;-72
2022/04/27 08:33:42;;;;;;;13.30;5.80;;;;;;;11.66;61.95;101804.26;104205;1287;74228;-72
2022/04/27 08:36:14;;;;;;;11.90;5.10;;;;;;;11.72;61.96;101802.71;104355;1287;61268;-71
2022/04/27 08:38:58;;;;;;;10.70;5.20;;;;;;;11.85;62.67;101806.59;104198;1287;61398;-74
2022/04/27 08:41:36;;;;;;;8.10;4.60;;;;;;;11.92;61.28;101808.05;104270;1287;74941;-75
2022/04/27 08:44:04;;;;;;;10.70;4.60;;;;;;;11.98;61.27;101809.27;104363;1287;71409;-77
2022/04/27 08:46:42;;;;;;;7.80;4.90;;;;;;;12.04;60.00;101809.63;104369;1287;74275;-77
2022/04/27 08:49:11;;;;;;;8.30;4.60;;;;;;;12.08;59.85;101810.05;104100;1287;61874;-76
2022/04/27 08:51:45;;;;;;;7.20;5.30;;;;;;;12.13;60.84;101811.30;104327;1287;62191;-74
2022/04/27 08:54:17;;;;;;;9.10;5.30;;;;;;;12.21;60.46;101813.68;104190;1287;74175;-71
2022/04/27 08:56:51;;;;;;;8.90;5.20;;;;;;;12.27;59.82;101811.64;104635;1287;71346;-74
2022/04/27 08:59:21;;;;;;;10.20;4.90;;;;;;;12.40;59.70;101815.96;104205;1287;74306;-72
2022/04/27 09:01:53;;;;;;;9.70;6.20;;;;;;;12.51;60.16;101818.55;104227;1287;61426;-73
2022/04/27 09:04:23;;;;;;;8.50;4.60;;;;;;;12.64;59.43;101820.95;104209;1287;61218;-73
2022/04/27 09:06:50;;;;;;;6.30;4.40;;;;;;;12.69;58.30;101819.04;104284;1286;76227;-73
2022/04/27 09:09:42;;;;;;;;;;;;;;;;;;;;;
2022/04/27 09:12:15;;;;;;;9.50;5.40;;;;;;;12.65;56.33;101825.09;104175;1287;72329;-72
2022/04/27 09:14:57;;;;;;;12.20;6.70;;;;;;;12.75;57.95;101821.55;104178;1287;61404;-72
2022/04/27 09:24:05;;;;;;;7.30;4.90;;;;;;;13.15;56.26;101825.11;104276;1287;72268;-70
2022/04/27 09:26:39;;;;;;;7.70;4.40;;;;;;;13.24;55.29;101824.17;104062;1287;74074;-70
2022/04/27 09:29:30;;;;;;;14.00;5.80;;;;;;;13.34;54.74;101822.10;104206;1286;61437;-69
2022/04/27 09:32:04;;;;;;;10.30;4.80;;;;;;;13.48;54.29;101818.98;104691;1287;61229;-70
2022/04/27 09:34:50;;;;;;;12.20;4.70;;;;;;;13.57;54.14;101813.77;104184;1285;74897;-70
2022/04/27 09:37:22;;;;;;;6.90;4.60;;;;;;;13.68;54.54;101815.89;104379;1287;72632;-69
2022/04/27 09:40:14;;;;;;;6.50;4.20;;;;;;;13.78;54.54;101815.66;103822;1287;74442;-70
2022/04/27 09:42:50;;;;;;;6.30;4.20;;;;;;;13.92;54.47;101816.02;103583;1287;533582;-71
2022/04/27 09:46:06;;;;;;;;;;;;;;;;;;;;;
2022/04/27 09:49:00;;;;;;;8.60;5.10;;;;;;;14.18;54.70;101815.56;104027;1287;75712;-73
2022/04/27 09:51:57;;;;;;;6.90;5.30;;;;;;;14.21;52.97;101818.75;103817;1287;73778;-70
2022/04/27 09:54:30;;;;;;;6.70;5.00;;;;;;;14.25;52.55;101814.06;104203;1287;74275;-70
2022/04/27 09:57:09;;;;;;;6.50;4.50;;;;;;;14.29;52.52;101816.33;104272;1286;61711;-72
2022/04/27 09:59:37;;;;;;;8.00;5.10;;;;;;;14.31;52.03;101817.02;103907;1288;61409;-70
2022/04/27 10:02:27;;;;;;;6.60;3.50;;;;;;;14.36;51.89;101814.84;104223;1287;74206;-70
2022/04/27 10:05:19;;;;;;;;;;;;;;;;;;;;;
2022/04/27 10:07:47;;;;;;;7.40;3.60;;;;;;;14.43;49.78;101813.54;104261;1287;72891;-68
2022/04/27 10:10:19;;;;;;;6.00;3.90;;;;;;;14.51;49.73;101816.47;104179;1287;61261;-66
2022/04/27 10:12:49;;;;;;;7.80;3.90;;;;;;;14.58;49.26;101815.71;104091;1288;61666;-67
2022/04/27 10:15:24;;;;;;;7.80;4.70;;;;;;;14.64;49.72;101816.48;104421;1287;76152;-66
2022/04/27 10:17:53;;;;;;;12.60;5.20;;;;;;;14.73;49.71;101821.67;104304;1287;72616;-68
2022/04/27 10:20:37;;;;;;;5.70;4.50;;;;;;;14.79;48.82;101819.44;104265;1287;74121;-68
2022/04/27 10:23:33;;;;;;;7.20;4.00;;;;;;;14.88;48.68;101808.61;104166;1286;62001;-67
2022/04/27 10:26:25;;;;;;;;;;;;;;;15.05;48.89;101806.96;104162;1287;61350;-68
2022/04/27 10:28:59;;;;;;;9.20;5.40;;;;;;;15.20;48.20;101811.30;104197;1287;76187;-65
2022/04/27 10:31:56;;;;;;;13.50;5.50;;;;;;;15.33;48.24;101809.94;104210;1287;72401;-68
2022/04/27 10:34:24;;;;;;;9.00;5.10;;;;;;;15.50;47.66;101811.91;104163;1287;73187;-66
2022/04/27 10:37:15;;;;;;;8.70;5.50;;;;;;;15.55;47.16;101816.18;104160;1287;61630;-64
2022/04/27 10:39:43;;;;;;;7.80;5.10;;;;;;;15.57;46.82;101807.77;104012;1287;61312;-66
2022/04/27 10:42:14;;;;;;;9.50;4.40;;;;;;;15.63;47.69;101807.38;104192;1287;75332;-68
2022/04/27 10:45:12;;;;;;;7.70;5.30;;;;;;;15.68;47.22;101803.43;104234;1287;71490;-70
2022/04/27 10:47:41;;;;;;;7.50;4.60;;;;;;;15.81;47.08;101808.81;104117;1287;74023;-70
2022/04/27 10:50:14;;;;;;;7.50;4.80;;;;;;;15.78;47.02;101808.10;104134;1287;61415;-67
2022/04/27 10:52:51;;;;;;;8.00;4.70;;;;;;;15.86;47.91;101803.27;104270;1287;61260;-70
2022/04/27 10:55:53;;;;;;;6.90;4.40;;;;;;;16.09;47.58;101812.62;104616;1287;74762;-68
2022/04/27 10:58:34;;;;;;;8.80;4.80;;;;;;;16.09;45.93;101809.23;104841;1287;72411;-68
2022/04/27 11:01:18;;;;;;;5.20;3.80;;;;;;;16.17;46.43;101810.20;104207;1287;73871;-68
2022/04/27 11:03:54;;;;;;;7.60;4.20;;;;;;;16.35;45.17;101805.65;104173;1287;61446;-68
2022/04/27 11:06:22;;;;;;;10.70;4.70;;;;;;;16.48;45.19;101803.90;104279;1287;61295;-69
2022/04/27 11:08:52;;;;;;;11.30;6.10;;;;;;;16.27;44.80;101809.60;104694;1287;75203;-67
2022/04/27 11:11:24;;;;;;;11.30;6.10;;;;;;;16.16;45.84;101801.62;104127;1287;72677;-67
2022/04/27 11:13:51;;;;;;;8.20;4.80;;;;;;;16.25;45.78;101809.16;104182;1287;74007;-65
2022/04/27 11:16:29;;;;;;;12.20;5.30;;;;;;;16.23;45.35;101811.89;104043;1287;61732;-67
2022/04/27 11:19:01;;;;;;;7.90;4.10;;;;;;;16.23;45.41;101801.71;104182;1287;61312;-68
2022/04/27 11:21:31;;;;;;;8.40;5.00;;;;;;;16.32;45.38;101804.19;104464;1287;75324;-68
2022/04/27 11:23:58;;;;;;;6.30;3.90;;;;;;;16.42;45.45;101803.70;104222;1287;72636;-66
2022/04/27 11:26:30;;;;;;;10.00;5.30;;;;;;;16.44;44.84;101805.25;104489;1287;72864;-67
2022/04/27 11:29:06;;;;;;;10.30;4.30;;;;;;;16.48;44.49;101801.55;104189;1287;61195;-66
2022/04/27 11:31:46;;;;;;;9.00;5.00;;;;;;;16.62;44.41;101803.04;104258;1287;61236;-66
2022/04/27 11:34:33;;;;;;;7.00;3.90;;;;;;;16.72;43.36;101800.06;105318;1288;75980;-66
2022/04/27 11:37:28;;;;;;;5.90;3.90;;;;;;;16.77;43.16;101800.00;103957;1286;71169;-68
2022/04/27 11:40:13;;;;;;;8.10;4.40;;;;;;;16.86;42.92;101801.90;103991;1288;74061;-69
2022/04/27 11:42:48;;;;;;;8.60;4.00;;;;;;;16.88;42.94;101796.48;104177;1287;61715;-67
2022/04/27 11:45:32;;;;;;;9.70;5.10;;;;;;;16.78;42.25;101800.55;103893;1288;61446;-70
2022/04/27 11:48:01;;;;;;;9.80;4.30;;;;;;;16.62;42.35;101798.41;104041;1287;74971;-69
2022/04/27 11:50:35;;;;;;;8.10;4.70;;;;;;;16.56;42.19;101797.69;104167;1287;72089;-69
2022/04/27 11:53:06;;;;;;;11.30;5.60;;;;;;;16.68;42.36;101795.02;104150;1287;74052;-69
2022/04/27 11:55:35;;;;;;;7.20;4.50;;;;;;;16.89;41.93;101787.59;104095;1287;61401;-70
2022/04/27 11:58:04;;;;;;;6.50;4.20;;;;;;;17.17;42.18;101785.69;104502;1287;61704;-68
2022/04/27 12:00:35;;;;;;;6.70;4.30;;;;;;;17.47;41.37;101786.98;104303;1286;74946;-66
2022/04/27 12:03:04;;;;;;;6.40;4.50;;;;;;;17.77;40.37;101787.64;104212;1287;73420;-68
2022/04/27 12:05:38;;;;;;;6.50;3.80;;;;;;;18.14;40.07;101786.09;104676;1287;72849;-68
2022/04/27 12:08:09;;;;;;;9.70;5.70;;;;;;;18.53;39.44;101784.83;104600;1287;61857;-68
2022/04/27 12:10:41;;;;;;;6.30;4.40;;;;;;;19.01;38.78;101778.86;104244;1287;61293;-69
2022/04/27 12:13:09;;;;;;;6.30;3.30;;;;;;;19.55;38.40;101773.63;104189;1287;75341;-66
2022/04/27 12:15:39;;;;;;;6.30;3.60;;;;;;;20.01;37.33;101769.69;104515;1287;72629;-67
2022/04/27 12:18:13;;;;;;;6.30;4.20;;;;;;;20.18;36.68;101770.81;104279;1287;74252;-68
2022/04/27 12:20:48;;;;;;;8.10;5.40;;;;;;;20.25;35.49;101770.41;104070;1287;61951;-66
2022/04/27 12:23:16;;;;;;;5.40;3.60;;;;;;;20.46;35.49;101769.06;104265;1287;61278;-67
2022/04/27 12:25:52;;;;;;;8.90;5.50;;;;;;;20.66;35.40;101772.44;104216;1287;76041;-68
2022/04/27 12:28:21;;;;;;;5.30;4.00;;;;;;;21.01;34.73;101770.03;104086;1287;72564;-68
2022/04/27 12:30:56;;;;;;;8.00;5.00;;;;;;;21.38;34.71;101765.65;104451;1287;73879;-68
2022/04/27 12:33:36;;;;;;;8.00;4.00;;;;;;;21.93;34.57;101764.06;104547;1287;61387;-68
2022/04/27 12:39:11;;;;;;;10.50;5.40;;;;;;;21.68;34.11;101760.07;104183;1287;76164;-69
2022/04/27 12:41:43;;;;;;;4.30;3.40;;;;;;;21.92;33.80;101758.91;104162;1287;73016;-67
2022/04/27 12:44:26;;;;;;;6.60;3.70;;;;;;;22.86;32.61;101756.90;104188;1287;72974;-69
2022/04/27 12:47:04;;;;;;;6.50;4.70;;;;;;;23.46;31.17;101762.61;104074;1287;61319;-69
2022/04/27 12:49:36;;;;;;;7.80;4.10;;;;;;;23.97;30.16;101755.13;103845;1287;61380;-69
2022/04/27 12:52:19;;;;;;;6.20;3.70;;;;;;;24.80;28.67;101756.85;105852;1287;75833;-66
2022/04/27 12:54:47;;;;;;;7.80;4.30;;;;;;;25.31;28.16;101759.98;104326;1287;72431;-68
2022/04/27 12:57:14;;;;;;;5.10;3.50;;;;;;;24.89;28.07;101760.43;104098;1287;75616;-71